Airfield :
LOGIN :

Register | Disclaimer

   EN    FR    IT 

 










Legend :    VFR   Marginal VFR   IFR   Intensive IFR   Very Intensive IFR
Visi :
Ceiling :
>= 8 km
>= 3000ft
5 to 8 km
1000 to 3000 ft
1500m to 5 km
500 to 1000 ft
800 to 1500m
200 to 500 ft
< 800m
< 200 ft
Symbols :   Thunderstorms  Fog  Heavy snow  Heavy precipitations  Wind > 20 kt
SIGMETs :     Misc.  Thunderstorms  Icing  Turbulence  Mountain Waves  Volcanic Ashes






- Airport Elevation : 359 ft
- IATA code : BVA


LFOB - Beauvais

CURRENT METAR :
  • 270300Z AUTO 24009KT 9999 BKN010 08/07 Q1005 NOSIG

EXPIRED METARs :
  • 270230Z AUTO 23009KT 9999 BKN011 08/07 Q1005 TEMPO BKN009
  • 270200Z AUTO 23009KT 9999 FEW011 08/07 Q1005 TEMPO BKN009
  • 270130Z AUTO 24008KT 9999 BKN014 BKN054 08/07 Q1006 TEMPO BKN009
  • 270100Z AUTO 23008KT 9999 OVC012 09/07 Q1006 TEMPO 3000 SHRA BKN007 BKN020CB
  • 270030Z AUTO 23009KT 9999 BKN015 OVC020 09/07 Q1006 TEMPO 3000 SHRA BKN007 BKN020CB

TAF TAF LFOB
Valid from the 27 at 00:00 until the 28 at 00:00 UTC


262300Z 2700/2724 22012KT 9999 SCT015 BKN030
TEMPO 2700/2702 3000 SHRA BKN007 BKN020CB
TEMPO 2702/2712 BKN009
TEMPO 2712/2717 20017G27KT 3000 RADZ BKN007 OVC013
TEMPO 2717/2721 2000 DZRA OVC003
TEMPO 2723/2724 24017G27KT 3000 SHRA BKN013TCU
ATIS : +33 3 44 11 49 28



MET'MAP, your aeronautical weather chart ! - Copyright ORBIFLY December 2007 - Disclaimer

ORBIFLY MET'MAP TEAM :

Programming & Development : Alexandra Zaïnal
Concept & original design : Baudouin d'Aumeries
Assistance for programming : Marc-Olivier Méhu
Technical & hardware support : Manuel Goepfert

Contact : metmap@orbifly.com




SOURCES & CREDITS :

   NOAA